createdAt,value
2023-04-16T00:01:35.624Z,52.77
2023-04-16T00:04:02.517Z,46.07
2023-04-16T00:06:29.629Z,48.73
2023-04-16T00:08:56.427Z,54.67
2023-04-16T00:11:23.132Z,52.03
2023-04-16T00:13:49.872Z,48.67
2023-04-16T00:16:16.592Z,48.73
2023-04-16T00:18:43.326Z,55.97
2023-04-16T00:21:09.971Z,50.23
2023-04-16T00:23:36.985Z,50.00
2023-04-16T00:26:04.053Z,44.37
2023-04-16T00:28:30.788Z,50.03
2023-04-16T00:30:57.470Z,47.17
2023-04-16T00:33:24.216Z,47.93
2023-04-16T00:35:51.119Z,53.60
2023-04-16T00:38:17.834Z,56.57
2023-04-16T00:40:44.500Z,49.83
2023-04-16T00:43:11.238Z,52.47
2023-04-16T00:45:38.279Z,56.10
2023-04-16T00:48:05.899Z,60.77
2023-04-16T00:50:33.650Z,64.50
2023-04-16T00:53:01.478Z,61.67
2023-04-16T00:55:28.295Z,62.97
2023-04-16T00:57:54.986Z,65.20
2023-04-16T01:00:22.031Z,62.47
2023-04-16T01:02:48.999Z,67.53
2023-04-16T01:05:16.022Z,71.97
2023-04-16T01:07:42.784Z,67.60
2023-04-16T01:10:09.506Z,71.83
2023-04-16T01:12:36.246Z,67.03
2023-04-16T01:15:03.284Z,69.57
2023-04-16T01:17:30.028Z,68.17
2023-04-16T01:20:00.128Z,70.40
2023-04-16T01:22:28.694Z,69.50
2023-04-16T01:24:55.592Z,66.63
2023-04-16T01:27:22.247Z,71.83
2023-04-16T01:29:48.929Z,71.00
2023-04-16T01:32:15.560Z,68.33
2023-04-16T01:34:42.239Z,68.17
2023-04-16T01:37:09.002Z,72.93
2023-04-16T01:39:35.728Z,63.93
2023-04-16T01:42:02.454Z,63.37
2023-04-16T01:44:30.861Z,64.57
2023-04-16T01:46:57.734Z,64.17
2023-04-16T01:49:24.578Z,58.03
2023-04-16T01:51:51.667Z,65.23
2023-04-16T01:54:18.329Z,57.43
2023-04-16T01:56:45.088Z,63.90
2023-04-16T01:59:12.352Z,62.20
2023-04-16T02:01:39.453Z,60.50
2023-04-16T02:04:06.506Z,66.27
2023-04-16T02:06:33.179Z,55.80
2023-04-16T02:08:59.806Z,55.00
2023-04-16T02:11:26.620Z,59.03
2023-04-16T02:13:53.360Z,58.20
2023-04-16T02:16:20.088Z,60.33
2023-04-16T02:18:46.759Z,51.87
2023-04-16T02:21:13.884Z,54.50
2023-04-16T02:23:41.385Z,58.10
2023-04-16T02:26:08.151Z,67.77
2023-04-16T02:28:34.798Z,63.60
2023-04-16T02:31:01.487Z,59.23
2023-04-16T02:33:28.643Z,58.70
2023-04-16T02:35:55.442Z,60.20
2023-04-16T02:38:22.224Z,58.47
2023-04-16T02:40:49.003Z,50.10
2023-04-16T02:43:15.713Z,47.43
2023-04-16T02:45:42.481Z,52.73
2023-04-16T02:48:09.626Z,53.40
2023-04-16T02:50:36.352Z,51.27
2023-04-16T02:53:04.256Z,53.47
2023-04-16T02:55:31.059Z,54.77
2023-04-16T02:57:57.808Z,61.80
2023-04-16T03:00:24.428Z,52.53
2023-04-16T03:02:51.278Z,47.77
2023-04-16T03:05:18.220Z,51.63
2023-04-16T03:07:44.850Z,56.13
2023-04-16T03:10:12.262Z,55.03
2023-04-16T03:12:39.207Z,53.60
2023-04-16T03:15:06.345Z,54.97
2023-04-16T03:17:33.054Z,57.77
2023-04-16T03:19:59.808Z,51.07
2023-04-16T03:22:26.975Z,49.33
2023-04-16T03:24:53.753Z,54.40
2023-04-16T03:27:20.447Z,50.40
2023-04-16T03:29:47.107Z,60.70
2023-04-16T03:32:13.848Z,57.20
2023-04-16T03:34:40.739Z,60.90
2023-04-16T03:37:08.858Z,55.50
2023-04-16T03:39:35.618Z,55.47
2023-04-16T03:42:03.386Z,55.43
2023-04-16T03:44:30.320Z,60.90
2023-04-16T03:46:57.131Z,54.80
2023-04-16T03:49:24.045Z,59.20
2023-04-16T03:51:51.172Z,58.70
2023-04-16T03:54:17.878Z,59.57
2023-04-16T03:56:44.740Z,70.27
2023-04-16T03:59:11.588Z,63.67
2023-04-16T04:01:38.294Z,67.97
2023-04-16T04:04:05.166Z,66.10
2023-04-16T04:06:32.531Z,71.40
2023-04-16T04:08:59.533Z,60.03
2023-04-16T04:11:26.251Z,66.70
2023-04-16T04:13:53.001Z,87.00
2023-04-16T04:16:19.730Z,82.80
2023-04-16T04:18:46.483Z,75.20
2023-04-16T04:21:13.131Z,84.23
2023-04-16T04:23:41.544Z,81.87
2023-04-16T04:26:08.695Z,81.67
2023-04-16T04:28:35.565Z,82.10
2023-04-16T04:31:02.308Z,83.70
2023-04-16T04:33:29.277Z,80.27
2023-04-16T04:35:55.916Z,81.90
2023-04-16T04:38:25.123Z,80.03
2023-04-16T04:40:52.906Z,81.87
2023-04-16T04:43:20.310Z,93.20
2023-04-16T04:45:47.385Z,75.57
2023-04-16T04:48:14.200Z,93.60
2023-04-16T04:50:41.772Z,79.80
2023-04-16T04:53:11.976Z,70.57
2023-04-16T04:55:39.464Z,76.10
2023-04-16T04:58:07.236Z,78.57
2023-04-16T05:00:34.736Z,79.07
2023-04-16T05:03:06.321Z,75.20
2023-04-16T05:05:33.107Z,82.30
2023-04-16T05:07:59.826Z,74.97
2023-04-16T05:10:27.072Z,74.60
2023-04-16T05:12:53.818Z,78.13
2023-04-16T05:15:20.567Z,84.37
2023-04-16T05:17:47.358Z,82.70
2023-04-16T05:20:14.549Z,76.90
2023-04-16T05:22:41.312Z,79.57
2023-04-16T05:25:08.419Z,80.90
2023-04-16T05:27:35.335Z,84.17
2023-04-16T05:30:02.327Z,78.53
2023-04-16T05:32:29.065Z,84.90
2023-04-16T05:34:55.758Z,85.73
2023-04-16T05:37:22.425Z,84.30
2023-04-16T05:39:49.115Z,82.10
2023-04-16T05:42:16.250Z,82.37
2023-04-16T05:44:43.010Z,79.47
2023-04-16T05:47:09.655Z,91.77
2023-04-16T05:49:39.548Z,77.13
2023-04-16T05:52:07.384Z,72.03
2023-04-16T05:54:35.357Z,83.27
2023-04-16T05:57:02.141Z,86.70
2023-04-16T05:59:43.933Z,78.83
2023-04-16T06:02:10.926Z,75.60
2023-04-16T06:04:38.042Z,74.17
2023-04-16T06:07:04.722Z,76.07
2023-04-16T06:09:31.400Z,76.90
2023-04-16T06:11:58.499Z,70.10
2023-04-16T06:14:25.324Z,76.10
2023-04-16T06:16:52.062Z,71.20
2023-04-16T06:19:19.168Z,78.90
2023-04-16T06:21:45.937Z,64.80
2023-04-16T06:24:13.305Z,66.57
2023-04-16T06:26:40.463Z,70.53
2023-04-16T06:29:07.270Z,66.37
2023-04-16T06:31:34.197Z,72.70
2023-04-16T06:34:01.318Z,78.40
2023-04-16T06:36:29.024Z,77.60
2023-04-16T06:38:55.784Z,59.53
2023-04-16T06:41:23.637Z,70.70
2023-04-16T06:43:50.300Z,62.63
2023-04-16T06:46:17.360Z,61.70
2023-04-16T06:48:44.185Z,66.50
2023-04-16T06:51:11.614Z,75.47
2023-04-16T06:53:38.600Z,67.17
2023-04-16T06:56:05.862Z,60.50
2023-04-16T06:58:32.987Z,59.23
2023-04-16T07:01:00.223Z,57.80
2023-04-16T07:03:27.607Z,52.13
2023-04-16T07:05:54.909Z,61.03
2023-04-16T07:08:21.661Z,51.33
2023-04-16T07:10:48.461Z,49.57
2023-04-16T07:13:15.167Z,44.30
2023-04-16T07:15:42.318Z,50.00
2023-04-16T07:18:09.573Z,50.90
2023-04-16T07:20:36.774Z,43.50
2023-04-16T07:23:03.509Z,45.47
2023-04-16T07:25:30.252Z,41.50
2023-04-16T07:27:57.484Z,47.73
2023-04-16T07:30:24.366Z,47.50
2023-04-16T07:32:51.607Z,49.03
2023-04-16T07:35:18.888Z,44.73
2023-04-16T07:37:46.015Z,47.87
2023-04-16T07:40:13.278Z,46.67
2023-04-16T07:42:40.420Z,39.63
2023-04-16T07:45:07.600Z,42.70
2023-04-16T07:47:34.745Z,39.20
2023-04-16T07:50:01.418Z,42.93
2023-04-16T07:52:28.533Z,38.00
2023-04-16T07:54:55.200Z,34.97
2023-04-16T07:57:21.900Z,32.43
2023-04-16T07:59:48.998Z,34.17
2023-04-16T08:02:16.946Z,33.73
2023-04-16T08:04:44.637Z,35.60
2023-04-16T08:07:11.704Z,33.90
2023-04-16T08:09:51.281Z,33.10
2023-04-16T08:12:18.413Z,30.97
2023-04-16T08:14:45.821Z,33.47
2023-04-16T08:17:13.676Z,31.73
2023-04-16T08:19:40.566Z,31.70
2023-04-16T08:22:07.299Z,30.67
2023-04-16T08:24:34.403Z,32.40
2023-04-16T08:27:11.435Z,31.50
2023-04-16T08:29:44.653Z,30.83
2023-04-16T08:32:11.859Z,30.57
2023-04-16T08:34:38.609Z,31.87
2023-04-16T08:37:05.387Z,31.83
2023-04-16T08:39:32.513Z,32.13
2023-04-16T08:42:02.087Z,33.23
2023-04-16T08:44:33.693Z,30.77
2023-04-16T08:47:02.157Z,28.53
2023-04-16T08:49:29.411Z,30.47
2023-04-16T08:51:57.038Z,28.93
2023-04-16T08:54:43.354Z,30.10
2023-04-16T08:57:11.919Z,30.50
2023-04-16T08:59:40.081Z,26.90
2023-04-16T09:02:07.397Z,30.80
2023-04-16T09:04:34.718Z,27.90
2023-04-16T09:07:04.545Z,29.13
2023-04-16T09:09:33.435Z,30.20
2023-04-16T09:12:01.358Z,27.07
2023-04-16T09:14:28.733Z,26.40
2023-04-16T09:16:56.081Z,27.97
2023-04-16T09:19:23.488Z,26.37
2023-04-16T09:21:50.560Z,25.63
2023-04-16T09:24:17.902Z,28.63
2023-04-16T09:26:45.022Z,27.57
2023-04-16T09:29:12.341Z,28.37
2023-04-16T09:31:39.186Z,27.43
2023-04-16T09:34:09.551Z,23.80
2023-04-16T09:36:36.982Z,29.77
2023-04-16T09:39:04.244Z,27.20
2023-04-16T09:41:39.463Z,30.17
2023-04-16T09:44:06.590Z,26.53
2023-04-16T09:46:40.781Z,24.90
2023-04-16T09:49:18.673Z,25.73
2023-04-16T09:51:49.568Z,25.43
2023-04-16T09:54:16.562Z,30.40
2023-04-16T09:56:45.789Z,29.73
2023-04-16T09:59:19.472Z,28.50
2023-04-16T10:02:14.243Z,29.10
2023-04-16T10:04:52.894Z,28.17
2023-04-16T10:07:20.590Z,30.43
2023-04-16T10:09:49.980Z,28.20
2023-04-16T10:12:16.702Z,29.70
2023-04-16T10:14:43.512Z,27.53
2023-04-16T10:17:10.940Z,27.10
2023-04-16T10:19:38.360Z,30.10
2023-04-16T10:22:05.512Z,25.23
2023-04-16T10:24:33.812Z,28.60
2023-04-16T10:27:01.173Z,24.53
2023-04-16T10:29:29.927Z,25.67
2023-04-16T10:31:57.513Z,25.17
2023-04-16T10:34:25.486Z,26.57
2023-04-16T10:36:53.882Z,24.37
2023-04-16T10:39:22.444Z,23.27
2023-04-16T10:41:49.631Z,24.10
2023-04-16T10:44:18.075Z,25.63
2023-04-16T10:46:49.733Z,25.67
2023-04-16T10:49:26.456Z,29.70
2023-04-16T10:52:02.329Z,23.33
2023-04-16T10:54:32.385Z,24.83
2023-04-16T10:57:04.385Z,23.90
2023-04-16T10:59:33.600Z,28.03
2023-04-16T11:02:02.113Z,24.37
2023-04-16T11:04:34.035Z,26.13
2023-04-16T11:07:19.287Z,24.80
2023-04-16T11:09:56.341Z,27.13
2023-04-16T11:12:27.613Z,24.00
2023-04-16T11:14:58.731Z,21.50
2023-04-16T11:17:31.791Z,20.23
2023-04-16T11:19:58.953Z,23.20
2023-04-16T11:22:26.988Z,21.33
2023-04-16T11:24:56.108Z,21.80
2023-04-16T11:27:24.281Z,21.20
2023-04-16T11:30:02.011Z,21.93
2023-04-16T11:32:34.691Z,22.00
2023-04-16T11:35:12.985Z,21.17
2023-04-16T11:37:40.355Z,21.53
2023-04-16T11:40:09.526Z,21.90
2023-04-16T11:42:37.948Z,20.40
2023-04-16T11:45:05.376Z,21.97
2023-04-16T11:47:32.612Z,22.57
2023-04-16T11:50:16.447Z,24.57
2023-04-16T11:52:43.270Z,21.17
2023-04-16T11:55:09.972Z,21.23
2023-04-16T11:57:38.234Z,19.63
2023-04-16T12:02:56.122Z,23.90
2023-04-16T12:05:30.897Z,19.97
2023-04-16T12:07:59.247Z,23.33
2023-04-16T12:10:26.421Z,21.93
2023-04-16T12:12:53.138Z,20.33
2023-04-16T12:15:19.842Z,21.40
2023-04-16T12:17:46.691Z,22.63
2023-04-16T12:20:15.461Z,22.67
2023-04-16T12:22:47.591Z,21.60
2023-04-16T12:25:16.099Z,22.27
2023-04-16T12:27:46.380Z,21.40
2023-04-16T12:30:14.472Z,22.47
2023-04-16T12:32:43.417Z,20.27
2023-04-16T12:35:11.511Z,20.17
2023-04-16T12:37:39.405Z,22.13
2023-04-16T12:40:07.140Z,20.40
2023-04-16T12:42:37.305Z,18.83
2023-04-16T12:45:05.525Z,19.27
2023-04-16T12:47:32.992Z,15.90
2023-04-16T12:49:59.845Z,17.43
2023-04-16T12:52:27.106Z,17.97
2023-04-16T12:54:54.107Z,17.77
2023-04-16T12:57:20.901Z,18.03
2023-04-16T12:59:47.670Z,17.83
2023-04-16T13:02:14.453Z,19.07
2023-04-16T13:04:41.395Z,18.67
2023-04-16T13:07:08.239Z,18.87
2023-04-16T13:09:35.096Z,18.17
2023-04-16T13:12:01.928Z,18.80
2023-04-16T13:14:28.654Z,16.70
2023-04-16T13:16:55.470Z,20.60
2023-04-16T13:19:22.327Z,18.97
2023-04-16T13:21:49.138Z,16.87
2023-04-16T13:24:15.970Z,19.93
2023-04-16T13:26:43.421Z,18.83
2023-04-16T13:29:10.463Z,16.90
2023-04-16T13:31:38.093Z,16.00
2023-04-16T13:34:04.945Z,17.43
2023-04-16T13:36:33.043Z,15.63
2023-04-16T13:38:59.982Z,13.40
2023-04-16T13:41:26.615Z,14.00
2023-04-16T13:43:54.203Z,15.93
2023-04-16T13:46:21.110Z,14.53
2023-04-16T13:48:47.857Z,16.33
2023-04-16T13:51:15.595Z,13.97
2023-04-16T13:53:42.337Z,14.87
2023-04-16T13:56:10.341Z,17.60
2023-04-16T13:58:37.804Z,16.20
2023-04-16T14:01:04.750Z,14.53
2023-04-16T14:03:35.832Z,15.00
2023-04-16T14:06:03.404Z,15.03
2023-04-16T14:08:30.371Z,15.77
2023-04-16T14:10:57.815Z,16.63
2023-04-16T14:13:25.559Z,15.23
2023-04-16T14:15:55.585Z,16.73
2023-04-16T14:18:22.433Z,14.07
2023-04-16T14:20:49.115Z,15.53
2023-04-16T14:23:15.777Z,15.83
2023-04-16T14:25:42.543Z,17.00
2023-04-16T14:28:09.385Z,17.40
2023-04-16T14:30:36.094Z,14.63
2023-04-16T14:33:05.720Z,14.73
2023-04-16T14:35:33.781Z,14.73
2023-04-16T14:38:01.360Z,15.40
2023-04-16T14:40:28.135Z,16.80
2023-04-16T14:42:54.798Z,18.83
2023-04-16T14:45:21.928Z,16.87
2023-04-16T14:47:49.873Z,22.60
2023-04-16T14:50:16.770Z,18.70
2023-04-16T14:52:43.498Z,15.93
2023-04-16T14:55:10.281Z,17.53
2023-04-16T14:57:38.383Z,18.07
2023-04-16T15:00:10.426Z,15.40
2023-04-16T15:02:37.699Z,13.40
2023-04-16T15:05:04.858Z,20.37
2023-04-16T15:07:31.957Z,16.97
2023-04-16T15:09:59.304Z,16.60
2023-04-16T15:12:26.478Z,17.60
2023-04-16T15:14:53.260Z,13.83
2023-04-16T15:17:20.864Z,13.40
2023-04-16T15:19:47.745Z,14.63
2023-04-16T15:22:14.809Z,19.10
2023-04-16T15:24:41.680Z,15.03
2023-04-16T15:27:11.635Z,17.40
2023-04-16T15:29:38.690Z,14.57
2023-04-16T15:32:06.948Z,14.50
2023-04-16T15:34:33.665Z,15.63
2023-04-16T15:37:00.419Z,15.87
2023-04-16T15:39:27.149Z,19.93
2023-04-16T15:42:01.185Z,21.27
2023-04-16T15:44:30.944Z,21.43
2023-04-16T15:46:57.683Z,18.47
2023-04-16T15:49:24.809Z,15.77
2023-04-16T15:51:52.061Z,18.27
2023-04-16T15:54:19.083Z,16.80
2023-04-16T15:56:46.638Z,16.90
2023-04-16T15:59:13.694Z,17.60
2023-04-16T16:01:40.854Z,16.00
2023-04-16T16:04:08.352Z,17.43
2023-04-16T16:06:35.759Z,15.93
2023-04-16T16:09:02.497Z,18.03
2023-04-16T16:11:29.217Z,17.97
2023-04-16T16:13:56.022Z,15.07
2023-04-16T16:16:22.780Z,17.53
2023-04-16T16:18:49.538Z,19.63
2023-04-16T16:21:16.616Z,16.20
2023-04-16T16:23:43.265Z,12.77
2023-04-16T16:26:09.962Z,16.30
2023-04-16T16:28:37.896Z,15.47
2023-04-16T16:31:06.020Z,12.87
2023-04-16T16:33:33.212Z,12.70
2023-04-16T16:35:59.897Z,15.47
2023-04-16T16:38:26.991Z,14.03
2023-04-16T16:40:53.718Z,13.50
2023-04-16T16:43:20.654Z,13.10
2023-04-16T16:45:47.357Z,14.73
2023-04-16T16:48:14.091Z,13.57
2023-04-16T16:50:40.892Z,12.90
2023-04-16T16:53:07.577Z,15.03
2023-04-16T16:55:35.501Z,12.33
2023-04-16T16:58:02.647Z,11.20
2023-04-16T17:00:29.315Z,12.90
2023-04-16T17:02:56.387Z,12.83
2023-04-16T17:05:23.464Z,13.67
2023-04-16T17:07:50.357Z,12.13
2023-04-16T17:10:20.810Z,13.10
2023-04-16T17:12:48.610Z,11.37
2023-04-16T17:15:15.733Z,10.23
2023-04-16T17:17:42.755Z,15.37
2023-04-16T17:20:10.814Z,16.73
2023-04-16T17:22:38.429Z,15.60
2023-04-16T17:25:07.501Z,12.63
2023-04-16T17:27:34.408Z,11.37
2023-04-16T17:30:02.234Z,11.30
2023-04-16T17:32:29.809Z,9.17
2023-04-16T17:34:56.866Z,13.13
2023-04-16T17:37:23.940Z,14.57
2023-04-16T17:39:51.480Z,16.00
2023-04-16T17:42:18.184Z,15.67
2023-04-16T17:44:44.978Z,21.63
2023-04-16T17:47:12.573Z,28.57
2023-04-16T17:49:39.232Z,36.20
2023-04-16T17:52:06.445Z,27.60
2023-04-16T17:54:33.154Z,28.47
2023-04-16T17:56:59.824Z,33.17
2023-04-16T17:59:27.301Z,30.30
2023-04-16T18:01:54.728Z,30.40
2023-04-16T18:04:21.680Z,28.77
2023-04-16T18:06:48.711Z,31.40
2023-04-16T18:09:15.563Z,30.17
2023-04-16T18:11:42.632Z,30.07
2023-04-16T18:14:11.589Z,28.83
2023-04-16T18:16:38.600Z,27.83
2023-04-16T18:19:05.558Z,29.07
2023-04-16T18:21:32.280Z,35.40
2023-04-16T18:24:00.872Z,28.93
2023-04-16T18:26:29.906Z,36.80
2023-04-16T18:28:57.160Z,38.27
2023-04-16T18:31:23.994Z,29.90
2023-04-16T18:33:57.386Z,27.97
2023-04-16T18:36:26.866Z,32.93
2023-04-16T18:41:24.353Z,32.27
2023-04-16T18:43:51.181Z,30.67
2023-04-16T18:46:18.289Z,26.37
2023-04-16T18:48:45.474Z,27.20
2023-04-16T18:51:14.248Z,25.40
2023-04-16T18:53:44.082Z,25.77
2023-04-16T18:56:11.129Z,30.73
2023-04-16T18:58:38.071Z,27.13
2023-04-16T19:01:07.785Z,25.70
2023-04-16T19:03:34.791Z,32.87
2023-04-16T19:06:01.880Z,26.53
2023-04-16T19:08:28.608Z,29.93
2023-04-16T19:10:55.401Z,31.47
2023-04-16T19:13:22.193Z,27.43
2023-04-16T19:15:48.971Z,30.73
2023-04-16T19:18:15.809Z,36.33
2023-04-16T19:20:42.545Z,41.23
2023-04-16T19:23:09.252Z,40.27
2023-04-16T19:25:39.273Z,34.40
2023-04-16T19:28:05.978Z,38.27
2023-04-16T19:30:32.721Z,36.93
2023-04-16T19:32:59.530Z,37.30
2023-04-16T19:35:27.038Z,32.93
2023-04-16T19:37:56.141Z,36.80
2023-04-16T19:40:22.853Z,32.33
2023-04-16T19:42:49.546Z,34.23
2023-04-16T19:45:17.605Z,30.07
2023-04-16T19:47:44.849Z,31.67
2023-04-16T19:50:11.750Z,37.07
2023-04-16T19:52:38.884Z,33.73
2023-04-16T19:55:07.032Z,36.70
2023-04-16T19:57:33.870Z,37.23
2023-04-16T20:00:00.818Z,35.67
2023-04-16T20:02:27.863Z,34.63
2023-04-16T20:04:54.762Z,35.27
2023-04-16T20:07:21.505Z,29.20
2023-04-16T20:09:48.236Z,31.27
2023-04-16T20:12:14.920Z,37.33
2023-04-16T20:14:41.933Z,34.83
2023-04-16T20:17:09.905Z,34.57
2023-04-16T20:19:40.492Z,33.40
2023-04-16T20:22:07.306Z,32.13
2023-04-16T20:24:34.202Z,30.13
2023-04-16T20:27:01.692Z,35.00
2023-04-16T20:29:28.439Z,33.60
2023-04-16T20:31:55.237Z,36.13
2023-04-16T20:34:21.893Z,34.23
2023-04-16T20:36:48.745Z,31.60
2023-04-16T20:39:20.176Z,28.37
2023-04-16T20:41:56.355Z,29.53
2023-04-16T20:44:26.326Z,34.93
2023-04-16T20:46:56.969Z,32.67
2023-04-16T20:49:24.930Z,34.00
2023-04-16T20:51:51.900Z,30.43
2023-04-16T20:54:18.544Z,34.30
2023-04-16T20:56:45.779Z,28.40
2023-04-16T20:59:13.333Z,36.20
2023-04-16T21:01:40.198Z,30.50
2023-04-16T21:04:07.273Z,35.97
2023-04-16T21:06:38.417Z,39.43
2023-04-16T21:09:05.986Z,32.23
2023-04-16T21:11:34.655Z,31.30
2023-04-16T21:14:04.539Z,31.37
2023-04-16T21:16:32.054Z,30.87
2023-04-16T21:18:59.107Z,30.33
2023-04-16T21:21:27.438Z,34.77
2023-04-16T21:23:54.162Z,34.20
2023-04-16T21:26:20.927Z,32.03
2023-04-16T21:28:48.079Z,34.10
2023-04-16T21:31:14.841Z,31.20
2023-04-16T21:33:41.604Z,32.17
2023-04-16T21:36:08.472Z,38.43
2023-04-16T21:38:35.131Z,33.23
2023-04-16T21:41:02.296Z,34.17
2023-04-16T21:43:31.853Z,34.30
2023-04-16T21:45:59.314Z,32.77
2023-04-16T21:48:27.001Z,36.17
2023-04-16T21:51:00.018Z,37.70
2023-04-16T21:53:30.831Z,32.30
2023-04-16T21:55:57.551Z,38.40
2023-04-16T21:58:25.818Z,31.00
2023-04-16T22:00:53.488Z,36.93
2023-04-16T22:03:26.437Z,35.87
2023-04-16T22:06:02.516Z,34.27
2023-04-16T22:08:30.280Z,34.43
2023-04-16T22:10:59.112Z,39.70
2023-04-16T22:13:26.468Z,44.97
2023-04-16T22:15:54.626Z,40.10
2023-04-16T22:18:21.987Z,37.30
2023-04-16T22:20:50.738Z,37.83
2023-04-16T22:23:17.683Z,36.20
2023-04-16T22:25:44.572Z,39.17
2023-04-16T22:28:11.397Z,36.27
2023-04-16T22:30:38.147Z,39.37
2023-04-16T22:33:04.962Z,36.27
2023-04-16T22:35:31.708Z,36.87
2023-04-16T22:37:58.400Z,43.57
2023-04-16T22:40:25.405Z,41.33
2023-04-16T22:42:52.077Z,36.57
2023-04-16T22:45:18.829Z,41.23
2023-04-16T22:47:45.610Z,37.63
2023-04-16T22:50:12.500Z,40.93
2023-04-16T22:52:39.226Z,36.33
2023-04-16T22:55:06.834Z,34.47
2023-04-16T22:57:33.551Z,39.63
2023-04-16T23:00:00.346Z,41.20
2023-04-16T23:02:27.095Z,39.40
2023-04-16T23:04:53.919Z,44.77
2023-04-16T23:07:20.829Z,41.43
2023-04-16T23:09:47.544Z,39.70
2023-04-16T23:12:14.254Z,41.10
2023-04-16T23:14:45.700Z,45.87
2023-04-16T23:17:13.714Z,50.03
2023-04-16T23:19:40.448Z,43.20
2023-04-16T23:22:07.191Z,39.47
2023-04-16T23:24:33.872Z,44.07
2023-04-16T23:27:01.082Z,50.43
2023-04-16T23:29:27.750Z,46.93
2023-04-16T23:31:54.470Z,40.93
2023-04-16T23:34:21.400Z,43.63
2023-04-16T23:36:48.097Z,41.37
2023-04-16T23:39:14.767Z,39.07
2023-04-16T23:41:41.426Z,48.83
2023-04-16T23:44:08.152Z,45.27
2023-04-16T23:46:35.010Z,46.13
2023-04-16T23:49:01.851Z,42.33
2023-04-16T23:51:28.497Z,43.83
2023-04-16T23:53:55.163Z,44.97
2023-04-16T23:56:22.125Z,39.70
2023-04-16T23:58:48.932Z,47.03
